createdAt,value
2022-11-17T00:00:07.669Z,7.95
2022-11-17T00:02:17.377Z,7.85
2022-11-17T00:04:25.395Z,7.40
2022-11-17T00:06:33.331Z,7.30
2022-11-17T00:08:41.294Z,7.35
2022-11-17T00:10:49.127Z,7.63
2022-11-17T00:13:09.478Z,8.05
2022-11-17T00:15:20.212Z,8.07
2022-11-17T00:17:28.100Z,8.55
2022-11-17T00:19:48.543Z,8.10
2022-11-17T00:21:53.793Z,8.48
2022-11-17T00:24:02.192Z,8.10
2022-11-17T00:26:10.260Z,8.48
2022-11-17T00:28:18.162Z,8.45
2022-11-17T00:30:43.816Z,7.45
2022-11-17T00:33:04.372Z,8.68
2022-11-17T00:35:12.580Z,9.30
2022-11-17T00:37:20.769Z,8.63
2022-11-17T00:39:28.533Z,8.40
2022-11-17T00:41:36.485Z,7.85
2022-11-17T00:43:44.414Z,7.00
2022-11-17T00:45:54.834Z,7.40
2022-11-17T00:48:02.912Z,7.55
2022-11-17T00:50:12.386Z,7.15
2022-11-17T00:52:20.199Z,6.80
2022-11-17T00:54:28.743Z,7.22
2022-11-17T00:56:36.630Z,7.25
2022-11-17T00:58:44.527Z,7.60
2022-11-17T01:00:54.994Z,8.20
2022-11-17T01:03:03.328Z,7.25
2022-11-17T01:05:11.803Z,7.28
2022-11-17T01:07:26.797Z,7.97
2022-11-17T01:09:34.740Z,8.32
2022-11-17T01:11:42.600Z,6.43
2022-11-17T01:13:51.158Z,7.53
2022-11-17T01:16:08.479Z,7.70
2022-11-17T01:18:16.371Z,7.50
2022-11-17T01:20:24.204Z,7.93
2022-11-17T01:22:31.958Z,8.38
2022-11-17T01:24:39.733Z,7.45
2022-11-17T01:26:50.697Z,8.05
2022-11-17T01:28:59.145Z,7.93
2022-11-17T01:31:13.288Z,8.45
2022-11-17T01:33:21.198Z,8.02
2022-11-17T01:35:28.879Z,8.52
2022-11-17T01:37:37.946Z,7.97
2022-11-17T01:39:45.772Z,8.02
2022-11-17T01:41:54.389Z,8.18
2022-11-17T01:44:22.761Z,7.82
2022-11-17T01:46:35.869Z,7.07
2022-11-17T01:48:46.055Z,7.35
2022-11-17T01:50:53.868Z,7.55
2022-11-17T01:53:04.245Z,7.65
2022-11-17T01:55:15.202Z,7.65
2022-11-17T01:57:27.541Z,7.47
2022-11-17T01:59:38.390Z,6.72
2022-11-17T02:01:59.426Z,7.07
2022-11-17T02:04:07.639Z,6.57
2022-11-17T02:06:21.360Z,6.93
2022-11-17T02:08:33.559Z,6.85
2022-11-17T02:10:47.131Z,7.00
2022-11-17T02:12:58.222Z,6.80
2022-11-17T02:15:07.719Z,6.18
2022-11-17T02:17:18.458Z,6.07
2022-11-17T02:19:29.450Z,6.50
2022-11-17T02:22:20.607Z,6.25
2022-11-17T02:25:00.693Z,5.85
2022-11-17T02:27:39.052Z,6.45
2022-11-17T02:29:55.901Z,6.20
2022-11-17T02:32:09.390Z,5.53
2022-11-17T02:34:30.295Z,6.35
2022-11-17T02:36:46.416Z,6.05
2022-11-17T02:39:02.333Z,5.88
2022-11-17T02:41:17.623Z,5.95
2022-11-17T02:43:42.635Z,6.38
2022-11-17T02:45:57.706Z,5.75
2022-11-17T02:48:13.388Z,5.65
2022-11-17T02:50:28.069Z,5.18
2022-11-17T02:52:37.339Z,4.90
2022-11-17T02:54:45.635Z,5.60
2022-11-17T02:56:53.737Z,5.35
2022-11-17T02:59:06.033Z,4.72
2022-11-17T03:01:32.177Z,5.15
2022-11-17T03:03:54.364Z,4.80
2022-11-17T03:06:11.814Z,4.82
2022-11-17T03:08:32.909Z,4.70
2022-11-17T03:10:51.428Z,4.43
2022-11-17T03:13:08.561Z,5.15
2022-11-17T03:15:26.441Z,4.65
2022-11-17T03:17:48.522Z,5.10
2022-11-17T03:20:03.341Z,4.50
2022-11-17T03:22:18.255Z,4.00
2022-11-17T03:24:32.810Z,4.50
2022-11-17T03:26:45.214Z,4.55
2022-11-17T03:28:55.605Z,5.05
2022-11-17T03:31:07.237Z,4.80
2022-11-17T03:33:24.179Z,5.18
2022-11-17T03:35:36.204Z,5.90
2022-11-17T03:37:49.830Z,5.60
2022-11-17T03:40:04.738Z,5.32
2022-11-17T03:42:19.382Z,5.35
2022-11-17T03:44:30.552Z,4.80
2022-11-17T03:46:42.027Z,4.90
2022-11-17T03:48:58.537Z,5.05
2022-11-17T03:51:11.814Z,4.78
2022-11-17T03:53:19.786Z,5.30
2022-11-17T03:55:34.890Z,4.70
2022-11-17T03:57:49.259Z,5.35
2022-11-17T04:00:00.830Z,4.95
2022-11-17T04:02:09.360Z,5.50
2022-11-17T04:04:22.731Z,4.95
2022-11-17T04:06:30.683Z,5.40
2022-11-17T04:08:38.601Z,5.38
2022-11-17T04:10:58.618Z,5.60
2022-11-17T04:13:18.800Z,5.25
2022-11-17T04:15:39.433Z,5.18
2022-11-17T04:17:47.362Z,5.18
2022-11-17T04:19:57.825Z,5.20
2022-11-17T04:22:06.232Z,5.10
2022-11-17T04:24:14.062Z,4.68
2022-11-17T04:26:34.345Z,5.13
2022-11-17T04:28:42.482Z,5.30
2022-11-17T04:30:50.415Z,5.65
2022-11-17T04:32:58.353Z,4.53
2022-11-17T04:35:10.014Z,4.40
2022-11-17T04:37:20.023Z,5.03
2022-11-17T04:39:28.013Z,4.63
2022-11-17T04:41:50.474Z,4.57
2022-11-17T04:43:59.464Z,4.60
2022-11-17T04:46:07.653Z,4.70
2022-11-17T04:48:15.450Z,4.40
2022-11-17T04:50:26.956Z,4.30
2022-11-17T04:52:35.901Z,3.88
2022-11-17T04:54:44.780Z,4.40
2022-11-17T04:56:55.647Z,4.53
2022-11-17T04:59:03.512Z,5.10
2022-11-17T05:01:18.805Z,4.05
2022-11-17T05:03:26.680Z,4.50
2022-11-17T05:05:37.514Z,4.90
2022-11-17T05:07:45.659Z,6.45
2022-11-17T05:09:53.545Z,5.45
2022-11-17T05:12:13.796Z,11.88
2022-11-17T05:14:24.614Z,9.85
2022-11-17T05:16:44.836Z,10.23
2022-11-17T05:18:53.719Z,5.15
2022-11-17T05:21:07.930Z,4.68
2022-11-17T05:23:28.128Z,5.13
2022-11-17T05:25:35.999Z,7.88
2022-11-17T05:27:43.944Z,5.10
2022-11-17T05:29:51.852Z,5.43
2022-11-17T05:31:59.717Z,4.80
2022-11-17T05:34:09.718Z,5.65
2022-11-17T05:36:20.916Z,5.20
2022-11-17T05:38:28.762Z,5.45
2022-11-17T05:40:37.737Z,6.03
2022-11-17T05:42:45.743Z,7.53
2022-11-17T05:44:53.605Z,6.70
2022-11-17T05:47:01.452Z,7.20
2022-11-17T05:49:09.553Z,7.28
2022-11-17T05:51:20.783Z,6.85
2022-11-17T05:53:29.731Z,5.50
2022-11-17T05:55:38.961Z,5.25
2022-11-17T05:57:47.809Z,5.57
2022-11-17T06:00:01.119Z,6.20
2022-11-17T06:02:13.094Z,4.47
2022-11-17T06:04:23.409Z,4.38
2022-11-17T06:06:36.758Z,4.47
2022-11-17T06:08:44.972Z,4.75
2022-11-17T06:10:52.845Z,4.07
2022-11-17T06:13:00.725Z,4.72
2022-11-17T06:15:11.068Z,4.82
2022-11-17T06:17:23.406Z,4.13
2022-11-17T06:19:38.507Z,4.07
2022-11-17T06:22:11.248Z,4.10
2022-11-17T06:24:17.477Z,4.00
2022-11-17T06:26:25.654Z,3.85
2022-11-17T06:28:35.201Z,4.50
2022-11-17T06:30:43.877Z,4.30
2022-11-17T06:32:52.680Z,3.72
2022-11-17T06:35:02.264Z,5.25
2022-11-17T06:37:13.360Z,4.22
2022-11-17T06:39:21.788Z,4.03
2022-11-17T06:41:30.834Z,3.55
2022-11-17T06:43:38.915Z,4.28
2022-11-17T06:45:50.127Z,3.53
2022-11-17T06:47:58.352Z,3.63
2022-11-17T06:50:06.622Z,3.50
2022-11-17T06:52:17.246Z,3.83
2022-11-17T06:54:25.382Z,3.90
2022-11-17T06:56:33.318Z,3.47
2022-11-17T06:58:42.881Z,3.70
2022-11-17T07:00:50.830Z,3.63
2022-11-17T07:03:03.795Z,3.65
2022-11-17T07:05:12.616Z,3.00
2022-11-17T07:07:23.337Z,3.60
2022-11-17T07:09:31.385Z,4.13
2022-11-17T07:11:39.223Z,3.30
2022-11-17T07:13:47.494Z,3.20
2022-11-17T07:15:58.164Z,3.03
2022-11-17T07:18:07.323Z,3.35
2022-11-17T07:20:15.540Z,2.80
2022-11-17T07:22:26.248Z,2.50
2022-11-17T07:24:34.453Z,2.88
2022-11-17T07:26:42.353Z,2.88
2022-11-17T07:28:50.250Z,2.70
2022-11-17T07:30:59.071Z,3.10
2022-11-17T07:33:07.112Z,2.60
2022-11-17T07:35:14.958Z,2.92
2022-11-17T07:37:25.776Z,2.22
2022-11-17T07:39:34.825Z,2.67
2022-11-17T07:41:43.986Z,2.55
2022-11-17T07:43:52.441Z,2.40
2022-11-17T07:46:03.229Z,2.13
2022-11-17T07:48:11.284Z,2.65
2022-11-17T07:50:19.288Z,2.38
2022-11-17T07:52:37.245Z,2.35
2022-11-17T07:54:48.221Z,2.30
2022-11-17T07:56:56.057Z,2.00
2022-11-17T07:59:04.758Z,2.33
2022-11-17T08:01:15.321Z,2.10
2022-11-17T08:03:24.497Z,2.60
2022-11-17T08:05:34.793Z,2.10
2022-11-17T08:07:48.049Z,2.50
2022-11-17T08:09:55.881Z,1.95
2022-11-17T08:12:03.714Z,1.85
2022-11-17T08:14:11.603Z,1.65
2022-11-17T08:16:20.811Z,1.55
2022-11-17T08:18:30.557Z,1.70
2022-11-17T08:20:38.383Z,1.30
2022-11-17T08:22:49.350Z,1.30
2022-11-17T08:24:57.231Z,1.15
2022-11-17T08:27:05.244Z,1.40
2022-11-17T08:29:13.068Z,1.40
2022-11-17T08:31:21.070Z,1.70
2022-11-17T08:33:28.907Z,1.50
2022-11-17T08:35:37.910Z,1.25
2022-11-17T08:37:48.602Z,1.38
2022-11-17T08:39:56.572Z,1.02
2022-11-17T08:42:04.604Z,0.90
2022-11-17T08:44:12.608Z,1.10
2022-11-17T08:46:20.426Z,1.00
2022-11-17T08:48:29.731Z,0.80
2022-11-17T08:50:38.376Z,1.05
2022-11-17T08:52:49.811Z,0.90
2022-11-17T08:54:57.967Z,0.93
2022-11-17T08:57:06.443Z,1.33
2022-11-17T08:59:15.574Z,0.80
2022-11-17T09:01:23.461Z,1.08
2022-11-17T09:03:31.488Z,1.00
2022-11-17T09:05:42.401Z,0.82
2022-11-17T09:07:54.141Z,0.85
2022-11-17T09:10:02.153Z,0.90
2022-11-17T09:12:10.350Z,1.02
2022-11-17T09:14:18.461Z,0.65
2022-11-17T09:16:26.854Z,0.80
2022-11-17T09:18:35.025Z,0.80
2022-11-17T09:20:45.924Z,0.70
2022-11-17T09:22:57.124Z,0.75
2022-11-17T09:25:10.289Z,1.10
2022-11-17T09:27:21.214Z,0.80
2022-11-17T09:29:29.057Z,1.05
2022-11-17T09:31:38.439Z,0.73
2022-11-17T09:33:47.349Z,0.77
2022-11-17T09:36:00.450Z,1.35
2022-11-17T09:38:10.988Z,0.82
2022-11-17T09:40:23.537Z,0.77
2022-11-17T09:42:31.490Z,0.70
2022-11-17T09:44:44.562Z,0.68
2022-11-17T09:47:05.055Z,0.50
2022-11-17T09:49:19.570Z,0.60
2022-11-17T09:51:30.788Z,0.60
2022-11-17T09:53:48.201Z,0.90
2022-11-17T09:56:01.024Z,0.70
2022-11-17T09:58:20.907Z,0.80
2022-11-17T10:00:29.376Z,0.60
2022-11-17T10:02:38.518Z,0.60
2022-11-17T10:04:46.443Z,1.15
2022-11-17T10:06:54.383Z,1.05
2022-11-17T10:09:24.046Z,1.48
2022-11-17T10:11:37.206Z,0.93
2022-11-17T10:13:49.756Z,0.70
2022-11-17T10:16:01.645Z,0.75
2022-11-17T10:18:15.321Z,1.10
2022-11-17T10:20:23.502Z,0.82
2022-11-17T10:22:47.932Z,1.08
2022-11-17T10:24:58.945Z,1.23
2022-11-17T10:27:08.119Z,0.90
2022-11-17T10:29:17.597Z,1.15
2022-11-17T10:31:27.818Z,1.20
2022-11-17T10:33:41.578Z,0.80
2022-11-17T10:35:58.341Z,0.90
2022-11-17T10:38:08.770Z,1.20
2022-11-17T10:40:37.008Z,1.25
2022-11-17T10:42:51.992Z,0.50
2022-11-17T10:45:03.530Z,1.00
2022-11-17T10:47:28.529Z,0.60
2022-11-17T10:49:39.850Z,1.10
2022-11-17T10:51:48.934Z,0.90
2022-11-17T10:54:09.148Z,1.00
2022-11-17T10:56:23.473Z,0.98
2022-11-17T10:58:34.041Z,0.80
2022-11-17T11:00:43.193Z,0.95
2022-11-17T11:02:51.515Z,1.10
2022-11-17T11:05:09.742Z,1.20
2022-11-17T11:07:22.950Z,1.00
2022-11-17T11:09:33.033Z,1.15
2022-11-17T11:11:47.907Z,0.90
2022-11-17T11:14:00.413Z,1.20
2022-11-17T11:16:08.888Z,1.10
2022-11-17T11:18:18.719Z,0.80
2022-11-17T11:20:43.738Z,0.90
2022-11-17T11:22:59.158Z,1.05
2022-11-17T11:25:25.917Z,0.80
2022-11-17T11:28:07.226Z,1.90
2022-11-17T11:30:19.533Z,1.63
2022-11-17T11:32:37.069Z,1.13
2022-11-17T11:35:07.457Z,2.50
2022-11-17T11:37:20.129Z,2.72
2022-11-17T11:39:42.958Z,1.63
2022-11-17T11:42:08.279Z,1.33
2022-11-17T11:44:39.028Z,1.40
2022-11-17T11:46:56.165Z,1.55
2022-11-17T11:49:19.628Z,1.20
2022-11-17T11:51:32.290Z,1.65
2022-11-17T11:53:48.563Z,1.50
2022-11-17T11:56:11.190Z,1.17
2022-11-17T11:58:23.968Z,1.38
2022-11-17T12:00:37.872Z,1.80
2022-11-17T12:02:52.861Z,1.58
2022-11-17T12:05:16.928Z,1.30
2022-11-17T12:07:35.330Z,1.60
2022-11-17T12:10:04.365Z,1.70
2022-11-17T12:12:18.599Z,1.80
2022-11-17T12:14:26.514Z,1.58
2022-11-17T12:16:43.370Z,1.55
2022-11-17T12:18:51.179Z,1.98
2022-11-17T12:21:02.719Z,1.10
2022-11-17T12:23:22.439Z,1.90
2022-11-17T12:25:33.438Z,1.27
2022-11-17T12:27:48.199Z,1.70
2022-11-17T12:29:57.162Z,1.67
2022-11-17T12:32:09.945Z,1.40
2022-11-17T12:34:30.826Z,1.35
2022-11-17T12:36:39.137Z,2.00
2022-11-17T12:38:47.017Z,1.40
2022-11-17T12:40:57.159Z,1.65
2022-11-17T12:43:24.563Z,1.23
2022-11-17T12:45:37.549Z,1.20
2022-11-17T12:48:18.302Z,1.58
2022-11-17T12:50:43.974Z,1.77
2022-11-17T12:53:05.525Z,1.30
2022-11-17T12:55:21.194Z,1.58
2022-11-17T12:57:36.571Z,2.10
2022-11-17T13:00:07.889Z,1.60
2022-11-17T13:02:43.959Z,1.73
2022-11-17T13:04:58.724Z,1.55
2022-11-17T13:07:08.453Z,1.40
2022-11-17T13:09:29.677Z,1.50
2022-11-17T13:11:38.800Z,1.70
2022-11-17T13:13:47.496Z,1.90
2022-11-17T13:15:58.895Z,1.75
2022-11-17T13:18:14.090Z,1.40
2022-11-17T13:20:28.684Z,1.30
2022-11-17T13:22:41.738Z,1.70
2022-11-17T13:24:53.859Z,1.45
2022-11-17T13:27:07.454Z,1.40
2022-11-17T13:29:24.258Z,1.48
2022-11-17T13:31:32.320Z,2.75
2022-11-17T13:33:41.371Z,1.60
2022-11-17T13:35:51.875Z,1.38
2022-11-17T13:38:09.518Z,1.55
2022-11-17T13:40:24.779Z,1.70
2022-11-17T13:42:37.246Z,1.70
2022-11-17T13:44:45.334Z,1.70
2022-11-17T13:46:53.364Z,1.95
2022-11-17T13:49:03.519Z,2.15
2022-11-17T13:51:27.920Z,1.90
2022-11-17T13:53:35.880Z,1.75
2022-11-17T13:55:56.410Z,1.60
2022-11-17T13:58:08.427Z,2.10
2022-11-17T14:00:20.974Z,1.58
2022-11-17T14:02:32.372Z,1.63
2022-11-17T14:04:40.522Z,1.73
2022-11-17T14:06:59.894Z,1.65
2022-11-17T14:09:08.795Z,1.88
2022-11-17T14:11:24.860Z,2.15
2022-11-17T14:13:34.992Z,1.52
2022-11-17T14:15:49.152Z,1.98
2022-11-17T14:18:02.605Z,1.83
2022-11-17T14:20:22.789Z,1.60
2022-11-17T14:22:34.673Z,2.85
2022-11-17T14:24:42.684Z,2.10
2022-11-17T14:26:50.761Z,1.85
2022-11-17T14:29:02.282Z,1.98
2022-11-17T14:31:16.077Z,2.28
2022-11-17T14:33:24.836Z,1.70
2022-11-17T14:35:32.884Z,1.83
2022-11-17T14:37:43.763Z,2.20
2022-11-17T14:39:51.554Z,2.30
2022-11-17T14:41:59.431Z,2.55
2022-11-17T14:44:08.209Z,1.95
2022-11-17T14:46:22.861Z,1.80
2022-11-17T14:48:30.906Z,1.95
2022-11-17T14:50:38.647Z,2.25
2022-11-17T14:52:49.367Z,2.25
2022-11-17T14:54:59.086Z,2.20
2022-11-17T14:57:08.528Z,1.92
2022-11-17T14:59:17.541Z,1.55
2022-11-17T15:01:29.026Z,1.98
2022-11-17T15:03:36.879Z,2.05
2022-11-17T15:05:48.895Z,3.05
2022-11-17T15:08:00.882Z,2.80
2022-11-17T15:10:10.734Z,2.40
2022-11-17T15:12:18.590Z,1.90
2022-11-17T15:14:26.385Z,2.03
2022-11-17T15:16:34.598Z,2.30
2022-11-17T15:18:42.774Z,2.42
2022-11-17T15:20:50.700Z,2.85
2022-11-17T15:23:03.506Z,3.50
2022-11-17T15:25:12.353Z,3.25
2022-11-17T15:27:22.772Z,2.20
2022-11-17T15:29:31.772Z,2.35
2022-11-17T15:31:39.677Z,2.28
2022-11-17T15:33:49.317Z,2.00
2022-11-17T15:36:04.557Z,2.20
2022-11-17T15:38:15.072Z,1.88
2022-11-17T15:40:23.319Z,2.70
2022-11-17T15:42:31.324Z,3.10
2022-11-17T15:44:39.446Z,2.50
2022-11-17T15:46:48.068Z,2.60
2022-11-17T15:48:56.253Z,2.65
2022-11-17T15:51:05.809Z,2.10
2022-11-17T15:53:16.199Z,1.63
2022-11-17T15:55:24.008Z,2.80
2022-11-17T15:57:34.637Z,2.40
2022-11-17T15:59:42.823Z,3.00
2022-11-17T16:01:51.010Z,2.83
2022-11-17T16:04:01.757Z,3.42
2022-11-17T16:06:10.906Z,2.90
2022-11-17T16:08:23.817Z,2.40
2022-11-17T16:10:32.132Z,2.40
2022-11-17T16:12:40.034Z,2.00
2022-11-17T16:14:47.917Z,2.58
2022-11-17T16:16:55.784Z,2.80
2022-11-17T16:19:04.327Z,2.83
2022-11-17T16:21:15.855Z,2.65
2022-11-17T16:23:26.342Z,2.78
2022-11-17T16:25:34.226Z,2.30
2022-11-17T16:27:42.064Z,3.83
2022-11-17T16:29:52.272Z,3.53
2022-11-17T16:32:00.692Z,2.55
2022-11-17T16:34:10.660Z,3.35
2022-11-17T16:36:19.911Z,2.88
2022-11-17T16:38:31.811Z,2.60
2022-11-17T16:40:40.060Z,2.63
2022-11-17T16:42:50.155Z,3.53
2022-11-17T16:44:59.061Z,2.95
2022-11-17T16:47:07.680Z,3.75
2022-11-17T16:49:18.161Z,3.00
2022-11-17T16:51:26.634Z,3.00
2022-11-17T16:53:37.226Z,3.20
2022-11-17T16:55:45.074Z,2.33
2022-11-17T16:57:52.879Z,3.40
2022-11-17T17:00:00.683Z,3.42
2022-11-17T17:02:12.219Z,4.28
2022-11-17T17:04:20.446Z,2.70
2022-11-17T17:06:29.200Z,2.80
2022-11-17T17:08:40.055Z,2.58
2022-11-17T17:10:48.405Z,3.00
2022-11-17T17:12:57.527Z,2.63
2022-11-17T17:15:05.484Z,2.90
2022-11-17T17:17:13.509Z,2.70
2022-11-17T17:19:22.488Z,2.80
2022-11-17T17:21:32.835Z,2.80
2022-11-17T17:23:43.388Z,3.20
2022-11-17T17:25:51.329Z,3.10
2022-11-17T17:27:59.437Z,3.40
2022-11-17T17:30:08.396Z,3.08
2022-11-17T17:32:16.852Z,3.28
2022-11-17T17:34:24.737Z,3.25
2022-11-17T17:36:33.390Z,3.10
2022-11-17T17:38:47.723Z,3.20
2022-11-17T17:40:58.241Z,3.80
2022-11-17T17:43:06.673Z,4.30
2022-11-17T17:45:16.540Z,3.90
2022-11-17T17:47:24.403Z,4.43
2022-11-17T17:49:32.314Z,4.25
2022-11-17T17:51:44.502Z,4.70
2022-11-17T17:53:56.098Z,5.03
2022-11-17T17:56:04.640Z,5.70
2022-11-17T17:58:12.985Z,5.00
2022-11-17T18:00:22.357Z,3.75
2022-11-17T18:02:31.704Z,3.25
2022-11-17T18:04:39.456Z,3.72
2022-11-17T18:06:49.292Z,4.30
2022-11-17T18:09:00.192Z,3.60
2022-11-17T18:11:10.056Z,3.50
2022-11-17T18:13:17.917Z,3.80
2022-11-17T18:15:26.524Z,2.92
2022-11-17T18:17:34.449Z,3.20
2022-11-17T18:19:42.852Z,3.50
2022-11-17T18:21:50.778Z,4.05
2022-11-17T18:24:03.325Z,3.75
2022-11-17T18:26:15.706Z,3.65
2022-11-17T18:28:24.457Z,3.05
2022-11-17T18:30:33.779Z,3.35
2022-11-17T18:32:41.694Z,4.80
2022-11-17T18:34:49.646Z,3.90
2022-11-17T18:37:01.466Z,4.65
2022-11-17T18:39:12.413Z,4.88
2022-11-17T18:41:21.906Z,6.00
2022-11-17T18:43:32.742Z,5.82
2022-11-17T18:45:41.596Z,6.13
2022-11-17T18:47:49.439Z,6.55
2022-11-17T18:49:57.363Z,5.47
2022-11-17T18:52:05.770Z,5.90
2022-11-17T18:54:16.714Z,4.60
2022-11-17T18:56:26.356Z,5.80
2022-11-17T18:58:36.814Z,5.60
2022-11-17T19:00:47.573Z,4.97
2022-11-17T19:02:55.507Z,4.70
2022-11-17T19:05:04.734Z,4.30
2022-11-17T19:07:13.370Z,5.07
2022-11-17T19:09:26.471Z,4.35
2022-11-17T19:11:34.830Z,3.15
2022-11-17T19:13:44.433Z,3.10
2022-11-17T19:15:53.890Z,4.70
2022-11-17T19:18:01.851Z,3.58
2022-11-17T19:20:13.592Z,3.25
2022-11-17T19:22:21.466Z,5.25
2022-11-17T19:24:31.930Z,5.20
2022-11-17T19:26:40.125Z,5.05
2022-11-17T19:28:50.571Z,4.32
2022-11-17T19:31:05.233Z,4.00
2022-11-17T19:33:13.182Z,3.40
2022-11-17T19:35:22.816Z,2.28
2022-11-17T19:37:32.120Z,2.90
2022-11-17T19:39:42.673Z,2.72
2022-11-17T19:41:50.659Z,2.95
2022-11-17T19:44:01.403Z,2.30
2022-11-17T19:46:12.463Z,2.40
2022-11-17T19:48:20.726Z,4.00
2022-11-17T19:50:28.738Z,2.90
2022-11-17T19:52:36.710Z,2.30
2022-11-17T19:54:47.356Z,1.20
2022-11-17T19:56:55.857Z,1.30
2022-11-17T19:59:04.296Z,2.55
2022-11-17T20:01:14.169Z,1.30
2022-11-17T20:03:22.116Z,1.10
2022-11-17T20:05:30.028Z,2.90
2022-11-17T20:07:39.623Z,22.05
2022-11-17T20:09:50.439Z,8.70
2022-11-17T20:12:03.676Z,5.20
2022-11-17T20:14:11.948Z,1.60
2022-11-17T20:16:21.646Z,2.00
2022-11-17T20:18:30.002Z,1.60
2022-11-17T20:20:39.982Z,2.58
2022-11-17T20:22:48.779Z,4.82
2022-11-17T20:25:03.593Z,2.58
2022-11-17T20:27:14.198Z,1.95
2022-11-17T20:29:23.467Z,1.80
2022-11-17T20:31:34.878Z,1.50
2022-11-17T20:33:44.258Z,4.72
2022-11-17T20:35:52.215Z,7.28
2022-11-17T20:38:03.497Z,3.60
2022-11-17T20:40:15.531Z,0.80
2022-11-17T20:42:24.483Z,1.00
2022-11-17T20:44:32.838Z,0.90
2022-11-17T20:46:40.608Z,0.80
2022-11-17T20:48:48.644Z,1.63
2022-11-17T20:51:00.138Z,1.30
2022-11-17T20:53:08.185Z,1.25
2022-11-17T20:55:20.136Z,1.30
2022-11-17T20:57:28.427Z,1.45
2022-11-17T20:59:36.333Z,2.03
2022-11-17T21:01:44.321Z,1.20
2022-11-17T21:03:55.365Z,1.60
2022-11-17T21:06:05.519Z,1.70
2022-11-17T21:08:16.339Z,1.75
2022-11-17T21:10:33.909Z,1.90
2022-11-17T21:12:42.725Z,1.95
2022-11-17T21:14:50.810Z,5.10
2022-11-17T21:17:02.189Z,4.70
2022-11-17T21:19:11.427Z,2.38
2022-11-17T21:21:19.503Z,2.10
2022-11-17T21:23:28.662Z,2.35
2022-11-17T21:25:39.836Z,2.20
2022-11-17T21:27:47.694Z,2.15
2022-11-17T21:29:55.590Z,2.80
2022-11-17T21:32:18.030Z,2.90
2022-11-17T21:34:32.486Z,2.13
2022-11-17T21:36:42.848Z,1.80
2022-11-17T21:38:51.288Z,1.15
2022-11-17T21:41:04.859Z,1.88
2022-11-17T21:43:14.360Z,1.98
2022-11-17T21:45:22.252Z,2.20
2022-11-17T21:47:30.394Z,3.88
2022-11-17T21:49:38.278Z,4.00
2022-11-17T21:51:46.582Z,5.47
2022-11-17T21:53:56.516Z,4.80
2022-11-17T21:56:09.846Z,4.97
2022-11-17T21:58:18.155Z,4.55
2022-11-17T22:00:28.303Z,3.72
2022-11-17T22:02:36.446Z,4.00
2022-11-17T22:04:44.854Z,2.80
2022-11-17T22:06:52.803Z,3.00
2022-11-17T22:09:02.436Z,3.47
2022-11-17T22:11:16.486Z,2.35
2022-11-17T22:13:24.395Z,1.90
2022-11-17T22:15:32.986Z,2.20
2022-11-17T22:17:40.794Z,1.50
2022-11-17T22:19:48.705Z,1.80
2022-11-17T22:21:57.402Z,1.65
2022-11-17T22:24:06.431Z,2.30
2022-11-17T22:26:17.012Z,1.33
2022-11-17T22:28:25.549Z,1.60
2022-11-17T22:30:33.371Z,1.50
2022-11-17T22:32:45.153Z,1.63
2022-11-17T22:34:54.968Z,1.30
2022-11-17T22:37:03.000Z,1.33
2022-11-17T22:39:11.186Z,1.50
2022-11-17T22:41:23.375Z,1.17
2022-11-17T22:43:33.177Z,0.88
2022-11-17T22:45:41.633Z,0.80
2022-11-17T22:47:50.077Z,1.33
2022-11-17T22:49:58.038Z,1.38
2022-11-17T22:52:10.418Z,1.65
2022-11-17T22:54:18.365Z,1.80
2022-11-17T22:56:29.034Z,1.38
2022-11-17T22:58:37.261Z,1.80
2022-11-17T23:00:46.258Z,2.13
2022-11-17T23:02:54.349Z,1.70
2022-11-17T23:05:08.261Z,2.10
2022-11-17T23:07:16.329Z,2.30
2022-11-17T23:09:24.273Z,2.38
2022-11-17T23:11:37.423Z,2.00
2022-11-17T23:13:46.012Z,2.70
2022-11-17T23:15:53.994Z,2.83
2022-11-17T23:18:02.324Z,5.82
2022-11-17T23:20:13.039Z,6.35
2022-11-17T23:22:21.373Z,5.45
2022-11-17T23:24:29.469Z,4.18
2022-11-17T23:26:41.263Z,4.97
2022-11-17T23:28:49.413Z,3.53
2022-11-17T23:31:01.362Z,3.53
2022-11-17T23:33:09.321Z,4.13
2022-11-17T23:35:17.552Z,3.03
2022-11-17T23:37:26.491Z,2.80
2022-11-17T23:39:34.628Z,2.90
2022-11-17T23:41:45.808Z,3.10
2022-11-17T23:43:56.313Z,3.40
2022-11-17T23:46:08.993Z,3.28
2022-11-17T23:48:17.065Z,3.65
2022-11-17T23:50:25.991Z,3.42
2022-11-17T23:52:35.691Z,3.83
2022-11-17T23:54:43.434Z,3.05
2022-11-17T23:56:53.893Z,3.20
2022-11-17T23:59:03.283Z,2.95
